Dennis, MA (02638)

8:37 PM EST on February 26, 2015 (GMT -0500)
Scargo Hill Dennis MA | Change Station
CLOSE
Current Station
Personal Weather Station
Location: Dennis, MA
Elevation: 133 ft
Nearby Weather Stations

Elev 133 ft 41.74 °N, 70.18 °W | Updated 25 seconds ago

Overcast
Overcast
23.4 °F
Feels Like 23 °F
N
2.2
Wind Variable Wind from NW
Gusts 7.6 mph

Today
High -- | Low -- °F
--% Chance of Precip.
Yesterday
High -- | Low -- °F
Precip. -- in
6:20 AM 5:27 PM
Waxing Gibbous, 64% visible
Pressure 30.00 in
Visibility 10.0 miles
Clouds Mostly Cloudy 2700 ft
Mostly Cloudy 9000 ft
Windchill 23 °F
Dew Point 13 °F
Humidity 65%
Rainfall 0.00 in
Snow Depth Not available.
UV 0 out of 12
Pollen .40 out of 12
Air Quality Not available.
Flu Activity Not available.
SPECI KHYA 270121Z 36013G19KT 10SM BKN027 BKN090 M04/M09 A3000 RMK AO2 T10441089

More Conditions Fewer Conditions

Pressure 30.00 in
Visibility 10.0 miles
Clouds Mostly Cloudy 2700 ft
Mostly Cloudy 9000 ft
Windchill 23 °F
Dew Point 13 °F
Humidity 65%
Rainfall 0.00 in
Snow Depth Not available.
UV 0 out of 12
Pollen .40 out of 12
Air Quality Not available.
Flu Activity Not available.
SPECI KHYA 270121Z 36013G19KT 10SM BKN027 BKN090 M04/M09 A3000 RMK AO2 T10441089

More Conditions Fewer Conditions

10-Day Weather Forecast

Almanac

Astronomy

Feb. 26, 2015 Rise Set
Actual Time
Civil Twilight
Nautical Twilight
Astronomical Twilight
Moon
Length of Visible Light
Length of Day
Tomorrow will be .
, % of the Moon is Illuminated

Today's Extremes

State Highs State Lows

Community

WunderPhotos

Upload Photos

1,800,553 photos uploaded!

WunderBlogs® & News

Nearby

Air Quality

  Air Quality AQ Index Pollutant
Not available.

Snow Depth

Station Depth Elevation

Earthquake Activity

City Distance Mag. Time & Date
Minimum magnitude displayed is 2.5.

Coastal Water Temperatures

Place Temperature

Nearby Weather Stations